Main page
METAR-TAF:

METAR-TAF

Airports :

RAF Brize Norton

Brize Norton, England

latitude: 51-45N, longitude: 001-35W, elevation: 88 m

Current weather observation

The report was made 47 minutes ago, at 18:20 UTC
Wind 7 kt from the East/Northeast
Temperature 19°C
Humidity 49%
Pressure 1021 hPa
Visibility 10 km or more

METAR: EGVN 191820Z AUTO 07007KT 9999 NCD 19/08 Q1021

Time: 20:07 (19:07 UTC)

Forecast

The report was made 2 hours and 48 minutes ago, at 16:19 UTC
Forecast valid from 19 at 18 UTC to 20 at 18 UTC
Wind 8 kt from the East/Northeast
Visibility 10 km or more
Few clouds at a height of 4500 ft

TAF: EGVN 191619Z 1918/2018 07008KT 9999 FEW045

Weather observations and forecasts of more than 4000 airports (METAR and TAF reports).

The available stations are represented by yellow and red dots on the map.

Hover mouse over dot to see the name of the station.

Then click to see weather observations and forecasts.

To change the map : click on the green buttons with a black cross to zoom in, on the green button with a dash to zoom out, or on the green arrows for adjacent maps.


METAR-TAF: